Tiempo atmosférico en la estación meteorológica de Campos, Salines Llevant, Illes Balears (3 m.)



Fecha
DESCASC
Temp. máxima en grados centígrados (hora)
DESCASC
Temp. mínima en grados centígrados (hora)
DESCASC
Temp. media en grados centígrados
DESCASC
Racha de viento máxima en m/sg (hora)
DESCASC
Velocidad máxima media en intervalos de 10 minutos(hora)
DESCASC
Precipitaciones diarias en mm
DESCASC
Precipitaciones de 00:00 a 06:00 en mm
DESCASC
Precipitaciones de 06:00 a 12:00 en mm
DESCASC
Precipitaciones de 12:00 a 18:00 en mm
DESCASC
Precipitaciones de 18:00 a 24:00 en mm
DESCASC
17-02-2019 16.7 (15:30) 2.7 (03:10) 9.7 7.78 (14:40) 5.28 (14:40) 0 0 0 0 0
16-02-2019 16.7 (15:20) 0.7 (02:50) 8.7 8.33 (11:40) 5.28 (11:20) 0 0 0 0 0
15-02-2019 17.4 (15:00) 0.8 (07:00) 9.1 7.5 (17:10) 4.72 (17:10) 0 0 0 0 0
14-02-2019 15.8 (14:20) -0.2 (00:00) 7.8 8.06 (14:40) 5.28 (15:20) 0 0 0 0 0
13-02-2019 16 (15:00) -1.8 (-00:0) 7.1 5.56 (13:30) 4.17 (13:40) 0 0 0 0 0
12-02-2019 16 (16:10) 1.6 (00:00) 8.8 6.67 (16:00) 4.44 (16:00) 0 0 0 0 0
11-02-2019 16.3 (12:40) 5.7 (00:00) 11 6.39 (14:50) 3.89 (14:50) 0 0 0 0 0
10-02-2019 16.6 (14:40) 10.1 (00:00) 13.4 15 (15:10) 11.11 (15:10) 0 0 0 0 0
09-02-2019 16.5 (15:20) 7 (00:00) 11.8 6.39 (09:00) 4.17 (13:30) 0 0 0 0 0
08-02-2019 16.1 (14:50) 3.9 (00:00) 10 6.39 (15:00) 4.17 (13:50) 0 0 0 0 0
07-02-2019 17.3 (14:30) 4.5 (00:00) 10.9 5 (18:30) 3.33 (15:50) 0 0 0 0 0
06-02-2019 16.2 (13:50) 0.9 (00:00) 8.6 6.67 (13:40) 4.72 (15:10) 0 0 0 0 0
05-02-2019 15.6 (15:40) -2.1 (-00:0) 6.8 8.33 (14:40) 6.11 (13:40) 0 0 0 0 0
04-02-2019 13.5 (16:10) -2.3 (-00:0) 5.6 10 (14:40) 6.67 (13:40) 0 0 0 0 0
03-02-2019 12 (12:30) -0.7 (-00:0) 5.7 8.06 (13:40) 5.56 (01:10) 0 0 0 0 0
02-02-2019 14.3 (00:00) 9 (00:00) 11.7 20.83 (04:30) 14.17 (05:10) 0 0 0 0 0
01-02-2019 16.1 (15:30) 13.9 (00:00) 15 18.61 (09:00) 9.72 (07:40) 1.6 0 1.4 0.2 0
31-01-2019 17.5 (14:50) 12.9 (00:00) 15.2 12.5 (02:30) 8.61 (02:30) 0 0 0 0 0
30-01-2019 14.9 (15:40) 4.3 (00:00) 9.6 16.11 (04:30) 10.83 (03:20) 0 0 0 0 0
29-01-2019 14 (23:20) 1.7 (00:00) 7.9 10.83 (23:20) 7.78 (23:30) 0 0 0 0 0
28-01-2019 15.1 (15:10) 6.1 (00:00) 10.6 19.44 (16:50) 13.61 (17:20) 0 0 0 0 0
27-01-2019 17.9 (13:00) 11.4 (00:00) 14.6 19.17 (20:30) 13.61 (20:30) 0 0 0 0 0
26-01-2019 16 (13:40) 1.1 (00:00) 8.6 13.33 (14:40) 8.33 (14:40) 0 0 0 0 0
25-01-2019 15.1 (16:10) -2.9 (-00:0) 6.1 7.5 (14:00) 4.72 (14:10) 0 0 0 0 0
24-01-2019 12.3 (15:30) 1 (00:00) 6.7 15.28 (07:40) 10.56 (12:10) 0 0 0 0 0
23-01-2019 14.5 (15:50) 7.6 (00:00) 11 18.89 (15:40) 13.33 (15:40) 1.6 0 1.2 0.4 0
22-01-2019 12.3 (14:20) -0.4 (00:00) 6 10.56 (14:40) 7.22 (14:30) 0.2 0.2 0 0 0
21-01-2019 13 (13:50) 2.5 (00:00) 7.8 12.22 (12:10) 8.33 (11:20) 1 0.8 0.2 0 0
20-01-2019 14.4 (15:50) 3 (00:00) 8.7 14.44 (21:00) 9.17 (20:40) 1.6 0 1.6 0 0
19-01-2019 14.2 (15:10) 2.6 (00:00) 8.4 8.33 (13:50) 5.83 (13:50) 0 0 0 0 0

Gráficas

Temp. máximas Temp. mínimas Temp. medias Precipitaciones Rachas de viento máximas Velocidades máximas media en intervalos de 10 minutos

Datos horarios

Fecha y hora oficial Temperatura (ºC) Velocidad del viento (km/h) Dirección del viento Racha (km/h) Dirección de racha Precipitación (mm) Presión (hPa) Tendencia (hPa) Humedad (%)
2019-02-17 23:00:00 5.3 4 Nordeste 7 Nordeste 0 -- -- 94
2019-02-17 22:00:00 6.7 3 Norte 5 Norte 0 -- -- 93
2019-02-17 21:00:00 8.8 0 Calma 8 Nordeste 0 -- -- 92
2019-02-17 20:00:00 10.2 5 Nordeste 10 Este 0 -- -- 90
2019-02-17 19:00:00 12.2 8 Este 12 Este 0 -- -- 86
2019-02-17 18:00:00 14 7 Este 20 Este 0 -- -- 77
2019-02-17 17:00:00 15.5 13 Este 24 Sudeste 0 -- -- 71
2019-02-17 16:00:00 15.9 12 Este 26 Este 0 -- -- 63
2019-02-17 15:00:00 16.3 17 Este 28 Sudeste 0 -- -- 67
2019-02-17 14:00:00 16.1 15 Este 23 Este 0 -- -- 64
2019-02-17 13:00:00 15.7 14 Este 27 Sudeste 0 -- -- 66
2019-02-17 12:00:00 16.1 12 Este 26 Sudeste 0 -- -- 68
2019-02-17 11:00:00 15 15 Este 22 Sudeste 0 -- -- 72
2019-02-17 10:00:00 11.5 8 Norte 13 Nordeste 0 -- -- 95
2019-02-17 09:00:00 8.5 8 Nordeste 14 Nordeste 0 -- -- 98
2019-02-17 08:00:00 5.9 4 Norte 6 Norte 0 -- -- 98
2019-02-17 07:00:00 6.5 3 Norte 8 Nordeste 0 -- -- 97
2019-02-17 06:00:00 6.5 2 Noroeste 11 Nordeste 0 -- -- 98
2019-02-17 05:00:00 6.9 3 Norte 6 Nordeste 0 -- -- 98
2019-02-17 04:00:00 3.1 2 Nordeste 4 Norte 0 -- -- 96
2019-02-17 03:00:00 2.8 0 Calma 9 Nordeste 0 -- -- 95
2019-02-17 02:00:00 4.1 5 Nordeste 9 Nordeste 0 -- -- 96
2019-02-17 01:00:00 5.2 3 Nordeste 8 Norte 0 -- -- 94
2019-02-17 00:00:00 4.6 0 Calma 8 Nordeste 0 -- -- 93
2019-02-16 23:00:00 7.3 7 Nordeste 10 Norte 0 -- -- 94
2019-02-16 22:00:00 9 3 Nordeste 11 Este 0 -- -- 90
2019-02-16 21:00:00 10.8 7 Este 19 Este 0 -- -- 91
2019-02-16 20:00:00 10.6 5 Nordeste 14 Este 0 -- -- 86
2019-02-16 19:00:00 11.6 11 Este 16 Este 0 -- -- 83
2019-02-16 18:00:00 14.6 10 Este 19 Este 0 -- -- 73
2019-02-16 17:00:00 15.7 14 Este 26 Este 0 -- -- 69
2019-02-16 16:00:00 16.5 17 Este 26 Sudeste 0 -- -- 64
2019-02-16 15:00:00 16.4 14 Este 28 Este 0 -- -- 64
2019-02-16 14:00:00 16.4 17 Este 27 Este 0 -- -- 64
2019-02-16 13:00:00 16.1 17 Este 26 Este 0 -- -- 61
2019-02-16 12:00:00 15.7 14 Este 30 Este 0 -- -- 59
2019-02-16 11:00:00 13.2 10 Nordeste 24 Este 0 -- -- 72
2019-02-16 10:00:00 8.3 10 Norte 18 Nordeste 0 -- -- 97
2019-02-16 09:00:00 5.6 12 Nordeste 22 Nordeste 0 -- -- 100
2019-02-16 08:00:00 4 12 Nordeste 19 Nordeste 0 -- -- 100
2019-02-16 07:00:00 4.5 9 Nordeste 21 Nordeste 0 -- -- 100
2019-02-16 06:00:00 4.8 5 Nordeste 15 Nordeste 0 -- -- 100
2019-02-16 05:00:00 5.9 9 Nordeste 15 Nordeste 0 -- -- 99
2019-02-16 04:00:00 4.6 4 Nordeste 6 Nordeste 0 -- -- 98
2019-02-16 03:00:00 0.9 0 Calma 4 Norte 0 -- -- 97
2019-02-16 02:00:00 1.8 2 Noroeste 6 Noroeste 0 -- -- 95
2019-02-16 01:00:00 1.5 0 Calma 2 Noroeste 0 -- -- 95
2019-02-16 00:00:00 2.5 0 Calma 4 Noroeste 0 -- -- 93
2019-02-15 23:00:00 3 3 Norte 5 Norte 0 -- -- 93
2019-02-15 22:00:00 3.8 0 Calma 5 Norte 0 -- -- 91
2019-02-15 21:00:00 6 2 Nordeste 8 Norte 0 -- -- 89
2019-02-15 20:00:00 9.9 3 Norte 18 Este 0 -- -- 89
2019-02-15 19:00:00 10.9 10 Sudeste 17 Este 0 -- -- 86
2019-02-15 18:00:00 13.9 15 Sudeste 27 Sudeste 0 -- -- 73
2019-02-15 17:00:00 16.2 15 Este 23 Este 0 -- -- 60
2019-02-15 16:00:00 17 15 Este 24 Sudeste 0 -- -- 58
2019-02-15 15:00:00 17.4 9 Sudeste 23 Sudeste 0 -- -- 54
2019-02-15 14:00:00 16.3 15 Este 26 Sudeste 0 -- -- 64
2019-02-15 13:00:00 16.3 13 Este 24 Sudeste 0 -- -- 66
2019-02-15 12:00:00 15.3 11 Este 21 Este 0 -- -- 74
2019-02-15 11:00:00 13.8 14 Este 22 Este 0 -- -- 82
2019-02-15 10:00:00 10.2 8 Norte 17 Nordeste 0 -- -- 94
2019-02-15 09:00:00 7.8 11 Nordeste 15 Nordeste 0 -- -- 98
2019-02-15 08:00:00 1.9 4 Nordeste 7 Nordeste 0 -- -- 100
2019-02-15 07:00:00 0.8 0 Calma 7 Norte 0 -- -- 98
2019-02-15 06:00:00 3.1 4 Norte 11 Nordeste 0 -- -- 98
2019-02-15 05:00:00 4.3 7 Norte 12 Norte 0 -- -- 98
2019-02-15 04:00:00 4.9 8 Norte 12 Nordeste 0 -- -- 97
2019-02-15 03:00:00 5.6 7 Nordeste 13 Norte 0 -- -- 97
2019-02-15 02:00:00 5.4 6 Nordeste 18 Nordeste 0 -- -- 96
2019-02-15 01:00:00 7.6 13 Nordeste 19 Nordeste 0 -- -- 96
2019-02-15 00:00:00 6.4 8 Nordeste 12 Nordeste 0 -- -- 96
2019-02-14 23:00:00 3.2 0 Calma 7 Nordeste 0 -- -- 91
2019-02-14 22:00:00 6.5 0 Calma 6 Nordeste 0 -- -- 93
2019-02-14 21:00:00 8.5 4 Nordeste 10 Nordeste 0 -- -- 90
2019-02-14 20:00:00 9.5 6 Nordeste 9 Nordeste 0 -- -- 88
2019-02-14 19:00:00 10.9 6 Nordeste 17 Este 0 -- -- 82
2019-02-14 18:00:00 13.2 9 Este 23 Este 0 -- -- 75
2019-02-14 17:00:00 14.6 14 Este 26 Este 0 -- -- 66
2019-02-14 16:00:00 15.2 18 Sudeste 27 Sudeste 0 -- -- 63
2019-02-14 15:00:00 15.6 17 Este 29 Sudeste 0 -- -- 61
2019-02-14 14:00:00 15.6 14 Este 25 Sudeste 0 -- -- 62
2019-02-14 13:00:00 15.1 15 Este 25 Este 0 -- -- 64
2019-02-14 12:00:00 14.5 14 Este 27 Este 0 -- -- 67
2019-02-14 11:00:00 13.9 15 Este 24 Este 0 -- -- 71
2019-02-14 10:00:00 10.2 9 Norte 16 Nordeste 0 -- -- 86
2019-02-14 09:00:00 7 11 Nordeste 19 Nordeste 0 -- -- 92
2019-02-14 08:00:00 5.6 10 Nordeste 19 Nordeste 0 -- -- 92
2019-02-14 07:00:00 5.5 11 Nordeste 17 Nordeste 0 -- -- 94
2019-02-14 06:00:00 4.4 5 Nordeste 18 Nordeste 0 -- -- 93
2019-02-14 05:00:00 5.6 13 Nordeste 19 Nordeste 0 -- -- 93
2019-02-14 04:00:00 5.1 8 Nordeste 16 Nordeste 0 -- -- 95
2019-02-14 03:00:00 0 3 Norte 7 Nordeste 0 -- -- 95
2019-02-14 02:00:00 -0.1 0 Calma 3 Sudeste 0 -- -- 94
2019-02-14 01:00:00 0.1 0 Calma 2 Sudeste 0 -- -- 93
2019-02-14 00:00:00 0.5 0 Calma 2 Sudeste 0 -- -- 92
2019-02-13 23:00:00 1.2 0 Calma 3 Sudeste 0 -- -- 91
2019-02-13 22:00:00 2.2 0 Calma 3 Sudeste 0 -- -- 89
2019-02-13 21:00:00 3.5 0 Calma 3 Norte 0 -- -- 86
2019-02-13 20:00:00 5.5 3 Sur 6 Este 0 -- -- 80
2019-02-13 19:00:00 9.6 0 Calma 13 Sudeste 0 -- -- 77
2019-02-13 18:00:00 13.6 7 Sur 12 Sudoeste 0 -- -- 62
2019-02-13 17:00:00 15.3 8 Sudoeste 17 Sudoeste 0 -- -- 51
2019-02-13 16:00:00 15.7 10 Sudoeste 17 Sur 0 -- -- 51
2019-02-13 15:00:00 16 8 Sudoeste 19 Oeste 0 -- -- 59
2019-02-13 14:00:00 15.5 14 Oeste 20 Oeste 0 -- -- 60
2019-02-13 13:00:00 15.6 11 Oeste 16 Oeste 0 -- -- 58
2019-02-13 12:00:00 14.8 0 Calma 4 Norte 0 -- -- 64
2019-02-13 11:00:00 12.1 0 Calma 3 Noroeste 0 -- -- 82
2019-02-13 10:00:00 6.4 2 Noroeste 4 Noroeste 0 -- -- 93
2019-02-13 09:00:00 2 0 Calma 2 Norte 0 -- -- 96
2019-02-13 08:00:00 -1.8 0 Calma 2 Sudeste 0 -- -- 96
2019-02-13 07:00:00 -1.6 0 Calma 2 Este 0 -- -- 96
2019-02-13 06:00:00 -1.3 0 Calma 4 Sudeste 0 -- -- 96
2019-02-13 05:00:00 -0.6 0 Calma 3 Norte 0 -- -- 96
2019-02-13 04:00:00 -0.7 0 Calma 2 Sudeste 0 -- -- 95
2019-02-13 03:00:00 -0.2 0 Calma 4 Sudeste 0 -- -- 95
2019-02-13 02:00:00 0.4 0 Calma 3 Sudeste 0 -- -- 94
2019-02-13 01:00:00 0.9 0 Calma 3 Nordeste 0 -- -- 93
2019-02-13 00:00:00 1.7 0 Calma 3 Nordeste 0 -- -- 93
2019-02-12 23:00:00 2.8 0 Calma 5 Norte 0 -- -- 92
2019-02-12 22:00:00 4.8 0 Calma 4 Sudeste 0 -- -- 91
2019-02-12 21:00:00 5.8 4 Sur 5 Sudeste 0 -- -- 89
2019-02-12 20:00:00 8.3 0 Calma 7 Oeste 0 -- -- 84
2019-02-12 19:00:00 12.7 6 Oeste 18 Oeste 0 -- -- 79
2019-02-12 18:00:00 13.8 14 Oeste 22 Oeste 0 -- -- 76
2019-02-12 17:00:00 15.1 15 Oeste 23 Oeste 0 -- -- 71
2019-02-12 16:00:00 15.9 16 Oeste 24 Oeste 0 -- -- 68
2019-02-12 15:00:00 15.2 8 Oeste 19 Oeste 0 -- -- 68
2019-02-12 14:00:00 14.6 15 Oeste 21 Oeste 0 -- -- 72
2019-02-12 13:00:00 15.2 10 Sudoeste 18 Oeste 0 -- -- 67
2019-02-12 12:00:00 14.4 3 Norte 12 Norte 0 -- -- 67
2019-02-12 11:00:00 12.4 0 Calma 4 Norte 0 -- -- 83
2019-02-12 10:00:00 9.5 3 Norte 5 Norte 0 -- -- 94
2019-02-12 09:00:00 5 0 Calma 3 Norte 0 -- -- 98
2019-02-12 08:00:00 1.7 0 Calma 3 Norte 0 -- -- 96
2019-02-12 07:00:00 2.4 0 Calma 5 Nordeste 0 -- -- 96
2019-02-12 06:00:00 3.7 2 Norte 4 Noroeste 0 -- -- 96
2019-02-12 05:00:00 2.9 0 Calma 4 Nordeste 0 -- -- 95
2019-02-12 04:00:00 3.6 0 Calma 3 Nordeste 0 -- -- 95
2019-02-12 03:00:00 6.8 3 Norte 4 Norte 0 -- -- 95
2019-02-12 02:00:00 7.2 0 Calma 3 Norte 0 -- -- 95
2019-02-12 01:00:00 6.2 0 Calma 3 Nordeste 0 -- -- 95
2019-02-12 00:00:00 5.7 0 Calma 2 Sudeste 0 -- -- 94
2019-02-11 23:00:00 6.8 0 Calma 5 Norte 0 -- -- 94
2019-02-11 22:00:00 8.1 3 Norte 5 Norte 0 -- -- 94
2019-02-11 21:00:00 9.6 0 Calma 6 Norte 0 -- -- 91
2019-02-11 20:00:00 10.6 2 Nordeste 7 Norte 0 -- -- 88
2019-02-11 19:00:00 11.5 0 Calma 12 Nordeste 0 -- -- 82
2019-02-11 18:00:00 11.7 8 Nordeste 12 Norte 0 -- -- 84
2019-02-11 17:00:00 12.5 10 Norte 13 Norte 0 -- -- 80
2019-02-11 16:00:00 12.7 8 Este 18 Este 0 -- -- 76
2019-02-11 15:00:00 12.7 13 Este 23 Nordeste 0 -- -- 76
2019-02-11 14:00:00 14.3 12 Sudeste 18 Sudeste 0 -- -- 65
2019-02-11 13:00:00 15.4 8 Sudoeste 14 Sudoeste 0 -- -- 63
2019-02-11 12:00:00 15.2 6 Este 17 Este 0 -- -- 63
2019-02-11 11:00:00 14.2 12 Este 21 Este 0 -- -- 70
2019-02-11 10:00:00 12 4 Norte 13 Este 0 -- -- 89
2019-02-11 09:00:00 9.6 2 Nordeste 7 Norte 0 -- -- 95
2019-02-11 08:00:00 9.2 3 Norte 8 Nordeste 0 -- -- 95
2019-02-11 07:00:00 8.7 5 Norte 17 Nordeste 0 -- -- 96
2019-02-11 06:00:00 8.9 5 Nordeste 13 Norte 0 -- -- 95
2019-02-11 05:00:00 9.5 9 Nordeste 12 Nordeste 0 -- -- 97
2019-02-11 04:00:00 7.8 6 Noroeste 14 Norte 0 -- -- 97
2019-02-11 03:00:00 7.2 0 Calma 4 Noroeste 0 -- -- 95
2019-02-11 02:00:00 8.4 2 Este 9 Sudeste 0 -- -- 95
2019-02-11 01:00:00 9.5 3 Oeste 7 Sur 0 -- -- 92
2019-02-11 00:00:00 10.1 5 Sudeste 11 Sudeste 0 -- -- 92
2019-02-10 23:00:00 11.8 4 Sur 10 Oeste 0 -- -- 88
2019-02-10 22:00:00 13.1 9 Oeste 22 Oeste 0 -- -- 87
2019-02-10 21:00:00 13.7 18 Oeste 25 Oeste 0 -- -- 83
2019-02-10 20:00:00 13.9 10 Oeste 21 Oeste 0 -- -- 79
2019-02-10 19:00:00 14.3 15 Oeste 33 Oeste 0 -- -- 79
2019-02-10 18:00:00 14.8 25 Oeste 41 Oeste 0 -- -- 77
2019-02-10 17:00:00 15.5 28 Oeste 47 Oeste 0 -- -- 68
2019-02-10 16:00:00 15.7 34 Oeste 54 Oeste 0 -- -- 72
2019-02-10 15:00:00 16.5 35 Oeste 50 Oeste 0 -- -- 69
2019-02-10 14:00:00 16 24 Oeste 36 Oeste 0 -- -- 84
2019-02-10 13:00:00 15.3 23 Oeste 36 Oeste 0 -- -- 86
2019-02-10 12:00:00 15.7 21 Sudoeste 33 Sudoeste 0 -- -- 85
2019-02-10 11:00:00 14.5 20 Oeste 30 Oeste 0 -- -- 87
2019-02-10 10:00:00 14.4 15 Sudoeste 31 Sudoeste 0 -- -- 86
2019-02-10 09:00:00 13.6 18 Oeste 27 Oeste 0 -- -- 88
2019-02-10 08:00:00 13.1 15 Sudoeste 27 Sudoeste 0 -- -- 88
2019-02-10 07:00:00 13 10 Sudoeste 24 Sudoeste 0 -- -- 87
2019-02-10 06:00:00 12.9 12 Sudoeste 24 Oeste 0 -- -- 86
2019-02-10 05:00:00 13.1 13 Oeste 23 Oeste 0 -- -- 86
2019-02-10 04:00:00 13.1 13 Oeste 27 Oeste 0 -- -- 86
2019-02-10 03:00:00 13 12 Sudoeste 22 Sudoeste 0 -- -- 89
2019-02-10 02:00:00 12.7 8 Sudoeste 15 Sudoeste 0 -- -- 92
2019-02-10 01:00:00 12.3 5 Sudoeste 15 Sudoeste 0 -- -- 96
2019-02-10 00:00:00 11.2 5 Sudoeste 13 Sur 0 -- -- 99
2019-02-09 23:00:00 7.9 0 Calma 5 Norte 0 -- -- 98
2019-02-09 22:00:00 7.2 3 Norte 5 Norte 0 -- -- 96
2019-02-09 21:00:00 7 4 Sur 6 Sudeste 0 -- -- 94
2019-02-09 20:00:00 8.6 5 Sudeste 6 Sudeste 0 -- -- 92
2019-02-09 19:00:00 11.6 2 Sur 8 Sudeste 0 -- -- 89
2019-02-09 18:00:00 14.5 5 Sudoeste 15 Sudoeste 0 -- -- 87
2019-02-09 17:00:00 15.8 9 Sudoeste 20 Sudoeste 0 -- -- 83
2019-02-09 16:00:00 15.9 11 Sudoeste 23 Sudoeste 0 -- -- 84
2019-02-09 15:00:00 16.2 12 Sudoeste 23 Oeste 0 -- -- 82
2019-02-09 14:00:00 16.3 15 Sudoeste 23 Sudoeste 0 -- -- 81
2019-02-09 13:00:00 15.9 13 Sudoeste 22 Sudoeste 0 -- -- 83
2019-02-09 12:00:00 15.2 8 Sudoeste 19 Sudoeste 0 -- -- 81
2019-02-09 11:00:00 15 9 Sudoeste 14 Sudoeste 0 -- -- 83
2019-02-09 10:00:00 14.2 7 Sudoeste 18 Oeste 0 -- -- 85
2019-02-09 09:00:00 13.6 12 Oeste 23 Oeste 0 -- -- 86
2019-02-09 08:00:00 13.3 10 Oeste 19 Oeste 0 -- -- 87
2019-02-09 07:00:00 13.4 13 Oeste 22 Oeste 0 -- -- 88
2019-02-09 06:00:00 13 9 Sudoeste 17 Sudoeste 0 -- -- 92
2019-02-09 05:00:00 12 10 Sudoeste 19 Sudoeste 0 -- -- 96
2019-02-09 04:00:00 9.4 3 Oeste 11 Sudoeste 0 -- -- 94
2019-02-09 03:00:00 8.8 6 Sur 9 Sudoeste 0 -- -- 97
2019-02-09 02:00:00 8.6 4 Sur 9 Sur 0 -- -- 93
2019-02-09 01:00:00 9.4 0 Calma 7 Sudoeste 0 -- -- 90
2019-02-09 00:00:00 11.6 2 Oeste 10 Sudoeste 0 -- -- 90
2019-02-08 23:00:00 12.2 6 Sudoeste 12 Sudoeste 0 -- -- 90
2019-02-08 22:00:00 12.4 8 Sudoeste 16 Sudoeste 0 -- -- 91
2019-02-08 21:00:00 12.3 6 Sudoeste 13 Sur 0 -- -- 92
2019-02-08 20:00:00 9.6 5 Sudoeste 10 Sudoeste 0 -- -- 90
2019-02-08 19:00:00 12.2 5 Sudoeste 10 Sudoeste 0 -- -- 85
2019-02-08 18:00:00 13.7 4 Sudoeste 15 Sudoeste 0 -- -- 81
2019-02-08 17:00:00 14.9 9 Sudoeste 20 Sudoeste 0 -- -- 78
2019-02-08 16:00:00 14.9 12 Sudoeste 22 Sudoeste 0 -- -- 78
2019-02-08 15:00:00 15.9 10 Sudoeste 23 Sur 0 -- -- 74
2019-02-08 14:00:00 15.5 15 Sur 22 Sudoeste 0 -- -- 72
2019-02-08 13:00:00 15.4 13 Sur 22 Sur 0 -- -- 72
2019-02-08 12:00:00 15.2 10 Sur 18 Sur 0 -- -- 74
2019-02-08 11:00:00 12.4 4 Noroeste 6 Norte 0 -- -- 89
2019-02-08 10:00:00 9.5 4 Norte 6 Norte 0 -- -- 96
2019-02-08 09:00:00 5.7 2 Norte 5 Norte 0 -- -- 97
2019-02-08 08:00:00 4.1 0 Calma 3 Sudeste 0 -- -- 96
2019-02-08 07:00:00 5.6 0 Calma 6 Norte 0 -- -- 95
2019-02-08 06:00:00 8.1 6 Nordeste 13 Nordeste 0 -- -- 96
2019-02-08 05:00:00 7.1 5 Nordeste 8 Nordeste 0 -- -- 98
2019-02-08 04:00:00 5.9 2 Norte 6 Norte 0 -- -- 96
2019-02-08 03:00:00 7.7 4 Norte 9 Nordeste 0 -- -- 96
2019-02-08 02:00:00 9.5 7 Nordeste 12 Nordeste 0 -- -- 96
2019-02-08 01:00:00 8.5 4 Nordeste 7 Nordeste 0 -- -- 96
2019-02-08 00:00:00 9.6 4 Nordeste 13 Nordeste 0 -- -- 95
2019-02-07 23:00:00 9.8 8 Nordeste 14 Nordeste 0 -- -- 96
2019-02-07 22:00:00 10.4 8 Nordeste 16 Norte 0 -- -- 94
2019-02-07 21:00:00 11.4 9 Nordeste 14 Nordeste 0 -- -- 92
2019-02-07 20:00:00 12.9 5 Nordeste 13 Este 0 -- -- 90
2019-02-07 19:00:00 13.1 10 Sudeste 18 Este 0 -- -- 88
2019-02-07 18:00:00 14.7 2 Sur 12 Sudoeste 0 -- -- 84
2019-02-07 17:00:00 15.9 7 Sudoeste 15 Oeste 0 -- -- 80
2019-02-07 16:00:00 16.3 10 Sudoeste 17 Oeste 0 -- -- 78
2019-02-07 15:00:00 16.6 11 Oeste 14 Oeste 0 -- -- 76
2019-02-07 14:00:00 16.6 7 Oeste 15 Sudoeste 0 -- -- 76
2019-02-07 13:00:00 16.7 9 Oeste 15 Oeste 0 -- -- 76
2019-02-07 12:00:00 15.3 5 Oeste 8 Oeste 0 -- -- 90
2019-02-07 11:00:00 12.8 0 Calma 4 Noroeste 0 -- -- 99
2019-02-07 10:00:00 10.9 0 Calma 2 Sudeste 0 -- -- 100
2019-02-07 09:00:00 6.9 0 Calma 5 Sudeste 0 -- -- 100
2019-02-07 08:00:00 5.8 2 Nordeste 4 Nordeste 0 -- -- 100
2019-02-07 07:00:00 5.4 2 Sudeste 4 Sudeste 0 -- -- 100
2019-02-07 06:00:00 4.5 0 Calma 3 Sudeste 0 -- -- 99
2019-02-07 05:00:00 5.5 0 Calma 3 Este 0 -- -- 99
2019-02-07 04:00:00 5.1 2 Sudeste 2 Sudeste 0 -- -- 98
2019-02-07 03:00:00 5.5 0 Calma 4 Norte 0 -- -- 98
2019-02-07 02:00:00 5.6 2 Nordeste 3 Nordeste 0 -- -- 98
2019-02-07 01:00:00 5.8 0 Calma 3 Sudeste 0 -- -- 97
2019-02-07 00:00:00 5.6 0 Calma 4 Sudeste 0 -- -- 97
2019-02-06 23:00:00 6.7 0 Calma 2 Sur 0 -- -- 95
2019-02-06 22:00:00 8.1 0 Calma 3 Noroeste 0 -- -- 95
2019-02-06 21:00:00 8.8 2 Sudeste 4 Sudeste 0 -- -- 94
2019-02-06 20:00:00 8.7 3 Sudeste 4 Sudeste 0 -- -- 91
2019-02-06 19:00:00 11.3 0 Calma 10 Sudoeste 0 -- -- 86
2019-02-06 18:00:00 14.3 5 Sudoeste 17 Sudoeste 0 -- -- 88
2019-02-06 17:00:00 15.5 8 Sudoeste 20 Sudoeste 0 -- -- 85
2019-02-06 16:00:00 16.1 12 Sudoeste 22 Oeste 0 -- -- 81
2019-02-06 15:00:00 15.9 16 Oeste 24 Oeste 0 -- -- 77
2019-02-06 14:00:00 16 15 Oeste 24 Sudoeste 0 -- -- 75
2019-02-06 13:00:00 16 14 Oeste 20 Oeste 0 -- -- 72
2019-02-06 12:00:00 15.8 11 Oeste 17 Oeste 0 -- -- 74
2019-02-06 11:00:00 13.9 7 Oeste 12 Sudoeste 0 -- -- 84
2019-02-06 10:00:00 8.6 3 Norte 4 Norte 0 -- -- 90
2019-02-06 09:00:00 4.3 0 Calma 2 Norte 0 -- -- 96
2019-02-06 08:00:00 1 0 Calma 2 Sudeste 0 -- -- 95
2019-02-06 07:00:00 1.2 0 Calma 3 Este 0 -- -- 96
2019-02-06 06:00:00 1.1 0 Calma 4 Oeste 0 -- -- 94
2019-02-06 05:00:00 1.5 0 Calma 3 Sudeste 0 -- -- 94
2019-02-06 04:00:00 1.7 2 Sudeste 3 Sudeste 0 -- -- 94
2019-02-06 03:00:00 2.3 0 Calma 3 Sudeste 0 -- -- 94
2019-02-06 02:00:00 3 0 Calma 3 Sudeste 0 -- -- 93
2019-02-06 01:00:00 4 0 Calma 3 Noroeste 0 -- -- 93
2019-02-06 00:00:00 3.9 0 Calma 3 Nordeste 0 -- -- 92
2019-02-05 23:00:00 5.1 0 Calma 5 Noroeste 0 -- -- 92
2019-02-05 22:00:00 6.4 0 Calma 6 Norte 0 -- -- 91
2019-02-05 21:00:00 6.3 4 Sudeste 6 Sudeste 0 -- -- 90
2019-02-05 20:00:00 8.4 4 Sudeste 6 Sudeste 0 -- -- 87
2019-02-05 19:00:00 12.4 4 Oeste 17 Oeste 0 -- -- 81
2019-02-05 18:00:00 14.1 13 Oeste 21 Oeste 0 -- -- 76
2019-02-05 17:00:00 15.4 17 Oeste 25 Oeste 0 -- -- 60
2019-02-05 16:00:00 15.6 15 Oeste 25 Oeste 0 -- -- 63
2019-02-05 15:00:00 14.7 18 Oeste 30 Oeste 0 -- -- 55
2019-02-05 14:00:00 14.5 21 Oeste 30 Oeste 0 -- -- 66
2019-02-05 13:00:00 14.1 15 Oeste 22 Oeste 0 -- -- 67
2019-02-05 12:00:00 11.4 7 Oeste 13 Oeste 0 -- -- 69
2019-02-05 11:00:00 7 0 Calma 4 Norte 0 -- -- 87
2019-02-05 10:00:00 3.3 3 Norte 5 Norte 0 -- -- 92
2019-02-05 09:00:00 0 0 Calma 2 Sudeste 0 -- -- 96
2019-02-05 08:00:00 -1.3 0 Calma 3 Norte 0 -- -- 94
2019-02-05 07:00:00 -2.1 0 Calma 2 Sudeste 0 -- -- 94
2019-02-05 06:00:00 -2 0 Calma 2 Sudeste 0 -- -- 94
2019-02-05 05:00:00 -1.7 0 Calma 2 Norte 0 -- -- 94
2019-02-05 04:00:00 -1.1 0 Calma 3 Nordeste 0 -- -- 93
2019-02-05 03:00:00 -0.3 0 Calma 5 Nordeste 0 -- -- 93
2019-02-05 02:00:00 -1 0 Calma 3 Nordeste 0 -- -- 93
2019-02-05 01:00:00 -0.9 0 Calma 3 Norte 0 -- -- 91
2019-02-05 00:00:00 -0.2 0 Calma 3 Nordeste 0 -- -- 90
2019-02-04 23:00:00 0.5 0 Calma 2 Norte 0 -- -- 90
2019-02-04 22:00:00 0.7 0 Calma 4 Sudeste 0 -- -- 88
2019-02-04 21:00:00 1.3 3 Sudeste 5 Sudeste 0 -- -- 85
2019-02-04 20:00:00 2.9 0 Calma 3 Sudeste 0 -- -- 77
2019-02-04 19:00:00 7.1 0 Calma 10 Nordeste 0 -- -- 69
2019-02-04 18:00:00 10.8 8 Nordeste 17 Nordeste 0 -- -- 59
2019-02-04 17:00:00 12.9 10 Nordeste 27 Oeste 0 -- -- 47
2019-02-04 16:00:00 13.3 19 Oeste 35 Oeste 0 -- -- 58
2019-02-04 15:00:00 13 20 Oeste 36 Oeste 0 -- -- 56
2019-02-04 14:00:00 12.6 23 Oeste 32 Oeste 0 -- -- 59
2019-02-04 13:00:00 12.5 21 Oeste 30 Oeste 0 -- -- 54
2019-02-04 12:00:00 12.3 10 Oeste 17 Sudoeste 0 -- -- 52
2019-02-04 11:00:00 9.7 2 Noroeste 5 Noroeste 0 -- -- 70
2019-02-04 10:00:00 5 0 Calma 4 Noroeste 0 -- -- 81
2019-02-04 09:00:00 1.4 0 Calma 4 Norte 0 -- -- 90
2019-02-04 08:00:00 -0.1 2 Este 3 Este 0 -- -- 91
2019-02-04 07:00:00 -0.4 0 Calma 6 Sudeste 0 -- -- 91
2019-02-04 06:00:00 -1.3 5 Sudeste 11 Este 0 -- -- 92
2019-02-04 05:00:00 -1.4 4 Sur 9 Sudeste 0 -- -- 89
2019-02-04 04:00:00 -1.8 4 Sudeste 6 Sudeste 0 -- -- 87
2019-02-04 03:00:00 0.7 0 Calma 10 Norte 0 -- -- 85
2019-02-04 02:00:00 0.7 4 Nordeste 11 Norte 0 -- -- 84
2019-02-04 01:00:00 0.3 3 Nordeste 4 Nordeste 0 -- -- 88
2019-02-04 00:00:00 -0.7 0 Calma 4 Norte 0 -- -- 85
2019-02-03 23:00:00 0.4 0 Calma 10 Norte 0 -- -- 81
2019-02-03 22:00:00 0.9 3 Este 5 Nordeste 0 -- -- 78
2019-02-03 21:00:00 3.2 0 Calma 9 Noroeste 0 -- -- 73
2019-02-03 20:00:00 7.1 4 Noroeste 17 Oeste 0 -- -- 65
2019-02-03 19:00:00 8.7 10 Oeste 17 Oeste 0 -- -- 65
2019-02-03 18:00:00 9.7 14 Oeste 21 Oeste 0 -- -- 64
2019-02-03 17:00:00 9.3 4 Sudoeste 8 Oeste 0 -- -- 72
2019-02-03 16:00:00 8.8 6 Noroeste 21 Noroeste 0 -- -- 73
2019-02-03 15:00:00 9.4 9 Nordeste 24 Este 0 -- -- 66
2019-02-03 14:00:00 9.3 14 Este 29 Este 0 -- -- 72
2019-02-03 13:00:00 11.5 5 Norte 15 Noroeste 0 -- -- 48
2019-02-03 12:00:00 11 8 Noroeste 26 Noroeste 0 -- -- 49
2019-02-03 11:00:00 10.4 16 Noroeste 27 Noroeste 0 -- -- 53
2019-02-03 10:00:00 7.8 5 Norte 7 Norte 0 -- -- 77
2019-02-03 09:00:00 4.3 0 Calma 5 Norte 0 -- -- 89
2019-02-03 08:00:00 3.3 4 Sur 7 Sudeste 0 -- -- 88
2019-02-03 07:00:00 3.5 4 Nordeste 11 Sudeste 0 -- -- 90
2019-02-03 06:00:00 3.2 3 Nordeste 9 Nordeste 0 -- -- 86
2019-02-03 05:00:00 3.6 3 Sudeste 10 Norte 0 -- -- 78
2019-02-03 04:00:00 6.5 3 Nordeste 22 Oeste 0 -- -- 73
2019-02-03 03:00:00 6.9 8 Noroeste 15 Noroeste 0 -- -- 72
2019-02-03 02:00:00 7.8 10 Noroeste 27 Noroeste 0 -- -- 69
2019-02-03 01:00:00 8.5 20 Noroeste 27 Noroeste 0 -- -- 68
2019-02-03 00:00:00 9 17 Noroeste 28 Noroeste 0 -- -- 65
2019-02-02 23:00:00 9.5 18 Oeste 26 Oeste 0 -- -- 67
2019-02-02 22:00:00 9.8 23 Noroeste 34 Noroeste 0 -- -- 68
2019-02-02 21:00:00 10.5 21 Noroeste 44 Noroeste 0 -- -- 64
2019-02-02 20:00:00 10.8 22 Noroeste 51 Noroeste 0 -- -- 66
2019-02-02 19:00:00 11.3 29 Noroeste 45 Oeste 0 -- -- 65
2019-02-02 18:00:00 11.3 25 Noroeste 34 Noroeste 0 -- -- 64
2019-02-02 17:00:00 11.1 26 Oeste 45 Noroeste 0 -- -- 67
2019-02-02 16:00:00 11.4 29 Noroeste 49 Noroeste 0 -- -- 69
2019-02-02 15:00:00 11.8 17 Noroeste 49 Noroeste 0 -- -- 71
2019-02-02 14:00:00 12.4 17 Noroeste 56 Oeste 0 -- -- 64
2019-02-02 13:00:00 14 32 Oeste 51 Oeste 0 -- -- 53
2019-02-02 12:00:00 13.4 26 Noroeste 43 Noroeste 0 -- -- 58
2019-02-02 11:00:00 11.4 24 Oeste 42 Oeste 0 -- -- 72
2019-02-02 10:00:00 11 35 Oeste 60 Oeste 0 -- -- 66
2019-02-02 09:00:00 12.2 44 Oeste 65 Oeste 0 -- -- 67
2019-02-02 08:00:00 11.9 46 Oeste 65 Oeste 0 -- -- 65
2019-02-02 07:00:00 12 49 Oeste 70 Oeste 0 -- -- 67
2019-02-02 06:00:00 12.2 50 Oeste 72 Oeste 0 -- -- 67
2019-02-02 05:00:00 12.3 48 Oeste 75 Oeste 0 -- -- 65
2019-02-02 04:00:00 12.3 48 Oeste 67 Oeste 0 -- -- 63
2019-02-02 03:00:00 12.3 48 Oeste 66 Oeste 0 -- -- 64
2019-02-02 02:00:00 12.7 46 Oeste 64 Oeste 0 -- -- 64
2019-02-02 01:00:00 13.5 45 Oeste 65 Oeste 0 -- -- 68
2019-02-02 00:00:00 14.3 20 Sudoeste 39 Sudoeste 0 -- -- 80
2019-02-01 23:00:00 14.1 17 Sudoeste 28 Sudoeste 0 -- -- 91
2019-02-01 22:00:00 14 9 Sudoeste 25 Sudoeste 0 -- -- 83
2019-02-01 21:00:00 14.3 18 Sudoeste 34 Oeste 0 -- -- 70
2019-02-01 20:00:00 14.4 21 Oeste 36 Oeste 0 -- -- 70
2019-02-01 19:00:00 14.1 13 Sudoeste 33 Oeste 0 -- -- 92
2019-02-01 18:00:00 13.9 17 Sudoeste 38 Sur 0 -- -- 89
2019-02-01 17:00:00 15 22 Sudoeste 45 Sudoeste 0.2 -- -- 91
2019-02-01 16:00:00 16 21 Sudoeste 42 Sudoeste 0 -- -- 88
2019-02-01 15:00:00 15.4 18 Sudoeste 44 Oeste 0 -- -- 88
2019-02-01 14:00:00 15.6 26 Sudoeste 51 Sudoeste 0 -- -- 85
2019-02-01 13:00:00 15.5 26 Sudoeste 56 Sudoeste 0 -- -- 85
2019-02-01 12:00:00 15 31 Sudoeste 59 Sudoeste 0.4 -- -- 88
2019-02-01 11:00:00 14.8 27 Sudoeste 55 Sudoeste 0.6 -- -- 90
2019-02-01 10:00:00 14.5 26 Sudoeste 54 Sudoeste 0.4 -- -- 92
2019-02-01 09:00:00 15 34 Sudoeste 67 Sudoeste 0 -- -- 87
2019-02-01 08:00:00 15 30 Sudoeste 64 Sudoeste 0 -- -- 87
2019-02-01 07:00:00 15 30 Sudoeste 50 Sudoeste 0 -- -- 88
2019-02-01 06:00:00 14.9 26 Sudoeste 46 Sudoeste 0 -- -- 89
2019-02-01 05:00:00 14.7 22 Sudoeste 44 Sudoeste 0 -- -- 90
2019-02-01 04:00:00 14.7 22 Sudoeste 46 Sudoeste 0 -- -- 90
2019-02-01 03:00:00 15 24 Sudoeste 43 Sudoeste 0 -- -- 88
2019-02-01 02:00:00 15 22 Sudoeste 44 Sudoeste 0 -- -- 88
2019-02-01 01:00:00 15 23 Sudoeste 36 Sudoeste 0 -- -- 89
2019-02-01 00:00:00 14.8 16 Sudoeste 34 Sudoeste 0 -- -- 91
2019-01-31 23:00:00 14.8 21 Sudoeste 36 Sudoeste 0 -- -- 91
2019-01-31 22:00:00 14.8 18 Sudoeste 35 Sudoeste 0 -- -- 91
2019-01-31 21:00:00 14.7 13 Sudoeste 32 Sudoeste 0 -- -- 91
2019-01-31 20:00:00 14.9 17 Sudoeste 33 Oeste 0 -- -- 89
2019-01-31 19:00:00 15 15 Sudoeste 30 Sudoeste 0 -- -- 88
2019-01-31 18:00:00 15.2 16 Sudoeste 36 Sudoeste 0 -- -- 87
2019-01-31 17:00:00 16.3 19 Sudoeste 44 Oeste 0 -- -- 81
2019-01-31 16:00:00 17.3 20 Sudoeste 41 Sudoeste 0 -- -- 75
2019-01-31 15:00:00 17.4 23 Sudoeste 44 Oeste 0 -- -- 73
2019-01-31 14:00:00 17.1 27 Oeste 42 Oeste 0 -- -- 75
2019-01-31 13:00:00 16.9 22 Oeste 44 Sudoeste 0 -- -- 74
2019-01-31 12:00:00 16.6 18 Sudoeste 37 Sudoeste 0 -- -- 77
2019-01-31 11:00:00 16.4 19 Sudoeste 41 Oeste 0 -- -- 75
2019-01-31 10:00:00 15.1 20 Sudoeste 37 Sudoeste 0 -- -- 76
2019-01-31 09:00:00 14.7 16 Sudoeste 36 Sudoeste 0 -- -- 77
2019-01-31 08:00:00 14.4 14 Sudoeste 36 Sudoeste 0 -- -- 75
2019-01-31 07:00:00 14.3 20 Sudoeste 42 Oeste 0 -- -- 72
2019-01-31 06:00:00 14 19 Sudoeste 36 Oeste 0 -- -- 73
2019-01-31 05:00:00 14 13 Sudoeste 39 Oeste 0 -- -- 74
2019-01-31 04:00:00 13.8 22 Oeste 38 Oeste 0 -- -- 64
2019-01-31 03:00:00 14 27 Oeste 45 Oeste 0 -- -- 68
2019-01-31 02:00:00 13.8 16 Sudoeste 32 Oeste 0 -- -- 68
2019-01-31 01:00:00 13.3 14 Sudoeste 32 Sudoeste 0 -- -- 75
2019-01-31 00:00:00 12.9 21 Sudoeste 30 Sudoeste 0 -- -- 72
2019-01-30 23:00:00 12.3 13 Sudoeste 22 Sudoeste 0 -- -- 68
2019-01-30 22:00:00 4.6 0 Calma 6 Sudoeste 0 -- -- 85
2019-01-30 21:00:00 4.9 2 Sudoeste 8 Sudeste 0 -- -- 78
2019-01-30 20:00:00 6.3 0 Calma 6 Sudeste 0 -- -- 78
2019-01-30 19:00:00 7.5 0 Calma 10 Noroeste 0 -- -- 70
2019-01-30 18:00:00 12.6 10 Oeste 27 Oeste 0 -- -- 52
2019-01-30 17:00:00 14.3 19 Oeste 32 Oeste 0 -- -- 50
2019-01-30 16:00:00 14.5 23 Oeste 38 Noroeste 0 -- -- 55
2019-01-30 15:00:00 14.7 30 Oeste 43 Oeste 0 -- -- 46
2019-01-30 14:00:00 14.5 30 Noroeste 43 Noroeste 0 -- -- 45
2019-01-30 13:00:00 14 33 Noroeste 48 Noroeste 0 -- -- 45
2019-01-30 12:00:00 13 30 Noroeste 49 Noroeste 0 -- -- 56
2019-01-30 11:00:00 12.3 23 Noroeste 37 Noroeste 0 -- -- 57
2019-01-30 10:00:00 10.7 8 Norte 34 Noroeste 0 -- -- 65
2019-01-30 09:00:00 10.5 23 Noroeste 36 Noroeste 0 -- -- 62
2019-01-30 08:00:00 10.5 21 Noroeste 40 Norte 0 -- -- 61
2019-01-30 07:00:00 10.8 23 Noroeste 46 Noroeste 0 -- -- 60
2019-01-30 06:00:00 11.4 32 Noroeste 58 Noroeste 0 -- -- 58
2019-01-30 05:00:00 11.5 33 Noroeste 58 Noroeste 0 -- -- 58
2019-01-30 04:00:00 11.7 22 Noroeste 54 Noroeste 0 -- -- 57
2019-01-30 03:00:00 11.7 19 Noroeste 44 Noroeste 0 -- -- 62
2019-01-30 02:00:00 12 22 Noroeste 52 Noroeste 0 -- -- 61
2019-01-30 01:00:00 12.1 20 Noroeste 33 Noroeste 0 -- -- 66
2019-01-30 00:00:00 13.1 14 Noroeste 39 Oeste 0 -- -- 76
2019-01-29 23:00:00 13.8 24 Oeste 33 Oeste 0 -- -- 77
2019-01-29 22:00:00 13.6 19 Oeste 31 Sudoeste 0 -- -- 80
2019-01-29 21:00:00 13.3 18 Sudoeste 33 Sudoeste 0 -- -- 72
2019-01-29 20:00:00 12.8 17 Oeste 27 Oeste 0 -- -- 73
2019-01-29 19:00:00 12.4 22 Oeste 32 Oeste 0 -- -- 71
2019-01-29 18:00:00 12.8 23 Oeste 33 Oeste 0 -- -- 68
2019-01-29 17:00:00 12.9 22 Oeste 31 Oeste 0 -- -- 72
2019-01-29 16:00:00 13 17 Oeste 25 Oeste 0 -- -- 62
2019-01-29 15:00:00 13.5 18 Oeste 28 Oeste 0 -- -- 62
2019-01-29 14:00:00 13.1 11 Sudoeste 33 Noroeste 0 -- -- 70
2019-01-29 13:00:00 13 8 Oeste 12 Sudoeste 0 -- -- 64
2019-01-29 12:00:00 12.6 5 Oeste 13 Oeste 0 -- -- 66
2019-01-29 11:00:00 10.5 3 Sudoeste 8 Sudeste 0 -- -- 83
2019-01-29 10:00:00 7 3 Noroeste 8 Noroeste 0 -- -- 94
2019-01-29 09:00:00 3.8 2 Este 9 Norte 0 -- -- 97
2019-01-29 08:00:00 2 0 Calma 11 Sudeste 0 -- -- 97
2019-01-29 07:00:00 2.5 3 Sur 10 Noroeste 0 -- -- 95
2019-01-29 06:00:00 3.1 0 Calma 6 Sudeste 0 -- -- 93
2019-01-29 05:00:00 4.5 0 Calma 6 Sudoeste 0 -- -- 92
2019-01-29 04:00:00 5.2 5 Norte 10 Norte 0 -- -- 90
2019-01-29 03:00:00 7.6 5 Nordeste 13 Nordeste 0 -- -- 86
2019-01-29 02:00:00 7.1 7 Norte 9 Norte 0 -- -- 88
2019-01-29 01:00:00 5.9 0 Calma 9 Nordeste 0 -- -- 88
2019-01-29 00:00:00 6.1 0 Calma 4 Sudeste 0 -- -- 89
2019-01-28 23:00:00 9 3 Oeste 11 Norte 0 -- -- 90
2019-01-28 22:00:00 9.1 5 Norte 8 Norte 0 -- -- 86
2019-01-28 21:00:00 10.4 8 Nordeste 44 Noroeste 0 -- -- 78
2019-01-28 20:00:00 12.7 28 Noroeste 42 Noroeste 0 -- -- 71
2019-01-28 19:00:00 13.6 27 Noroeste 54 Noroeste 0 -- -- 63
2019-01-28 18:00:00 13.7 34 Noroeste 63 Noroeste 0 -- -- 61
2019-01-28 17:00:00 14.2 41 Noroeste 70 Noroeste 0 -- -- 59
2019-01-28 16:00:00 14.8 38 Noroeste 63 Oeste 0 -- -- 56
2019-01-28 15:00:00 15 45 Oeste 66 Oeste 0 -- -- 62
2019-01-28 14:00:00 14.6 41 Oeste 61 Oeste 0 -- -- 59
2019-01-28 13:00:00 14.1 41 Oeste 62 Oeste 0 -- -- 63
2019-01-28 12:00:00 14.3 39 Oeste 56 Oeste 0 -- -- 56
2019-01-28 11:00:00 13.6 31 Oeste 47 Oeste 0 -- -- 57
2019-01-28 10:00:00 11.9 33 Noroeste 46 Oeste 0 -- -- 62
2019-01-28 09:00:00 10 4 Sudoeste 17 Noroeste 0 -- -- 66
2019-01-28 08:00:00 9.2 11 Noroeste 22 Noroeste 0 -- -- 72
2019-01-28 07:00:00 7.8 4 Noroeste 18 Oeste 0 -- -- 77
2019-01-28 06:00:00 8.9 12 Noroeste 21 Oeste 0 -- -- 73
2019-01-28 05:00:00 9.5 6 Noroeste 24 Noroeste 0 -- -- 70
2019-01-28 04:00:00 10.1 8 Oeste 22 Oeste 0 -- -- 68
2019-01-28 03:00:00 10.2 10 Oeste 33 Noroeste 0 -- -- 68
2019-01-28 02:00:00 10.8 20 Noroeste 33 Noroeste 0 -- -- 64
2019-01-28 01:00:00 10.7 18 Noroeste 42 Noroeste 0 -- -- 63
2019-01-28 00:00:00 11.5 8 Norte 47 Noroeste 0 -- -- 57
2019-01-27 23:00:00 11.8 19 Noroeste 56 Noroeste 0 -- -- 55
2019-01-27 22:00:00 12.1 22 Noroeste 63 Noroeste 0 -- -- 56
2019-01-27 21:00:00 12.5 33 Noroeste 69 Noroeste 0 -- -- 56
2019-01-27 20:00:00 13.4 34 Noroeste 51 Noroeste 0 -- -- 53
2019-01-27 19:00:00 13.2 21 Noroeste 54 Noroeste 0 -- -- 56
2019-01-27 18:00:00 14.1 34 Noroeste 64 Noroeste 0 -- -- 54
2019-01-27 17:00:00 15.5 39 Noroeste 58 Noroeste 0 -- -- 47
2019-01-27 16:00:00 16.5 29 Noroeste 52 Noroeste 0 -- -- 50
2019-01-27 15:00:00 16.8 32 Noroeste 47 Noroeste 0 -- -- 52
2019-01-27 14:00:00 17.3 36 Noroeste 48 Noroeste 0 -- -- 56
2019-01-27 13:00:00 17.9 25 Noroeste 32 Noroeste 0 -- -- 55
2019-01-27 12:00:00 16.1 20 Oeste 34 Oeste 0 -- -- 77
2019-01-27 11:00:00 15.8 19 Oeste 33 Oeste 0 -- -- 74
2019-01-27 10:00:00 15 18 Oeste 32 Oeste 0 -- -- 85
2019-01-27 09:00:00 14.5 18 Sudoeste 31 Oeste 0 -- -- 87
2019-01-27 08:00:00 13.5 10 Sudoeste 23 Sudoeste 0 -- -- 93
2019-01-27 07:00:00 13.5 10 Sudoeste 26 Oeste 0 -- -- 93
2019-01-27 06:00:00 12.9 6 Sudoeste 13 Sudoeste 0 -- -- 93
2019-01-27 05:00:00 13.1 6 Sudoeste 14 Sudoeste 0 -- -- 93
2019-01-27 04:00:00 13.4 6 Sudoeste 16 Oeste 0 -- -- 93
2019-01-27 03:00:00 13.9 8 Sudoeste 24 Sudoeste 0 -- -- 93
2019-01-27 02:00:00 13.9 16 Sudoeste 29 Oeste 0 -- -- 91
2019-01-27 01:00:00 13.9 14 Sudoeste 29 Sudoeste 0 -- -- 89
2019-01-27 00:00:00 13.6 13 Sudoeste 27 Oeste 0 -- -- 87
2019-01-26 23:00:00 13.6 11 Sudoeste 24 Sudoeste 0 -- -- 86
2019-01-26 22:00:00 13.3 10 Sudoeste 22 Sudoeste 0 -- -- 89
2019-01-26 21:00:00 13.1 8 Sudoeste 18 Sur 0 -- -- 90
2019-01-26 20:00:00 13.1 10 Sudoeste 20 Sudoeste 0 -- -- 88
2019-01-26 19:00:00 13.3 12 Sudoeste 24 Sudoeste 0 -- -- 86
2019-01-26 18:00:00 13.8 9 Sudoeste 22 Oeste 0 -- -- 84
2019-01-26 17:00:00 15.1 18 Oeste 29 Oeste 0 -- -- 77
2019-01-26 16:00:00 15.4 24 Oeste 36 Oeste 0 -- -- 74
2019-01-26 15:00:00 15.9 25 Oeste 48 Oeste 0 -- -- 69
2019-01-26 14:00:00 16 24 Oeste 34 Sudoeste 0 -- -- 72
2019-01-26 13:00:00 15.5 18 Oeste 29 Oeste 0 -- -- 73
2019-01-26 12:00:00 15.1 18 Oeste 26 Oeste 0 -- -- 75
2019-01-26 11:00:00 13.7 8 Sudoeste 17 Sudoeste 0 -- -- 86
2019-01-26 10:00:00 8.6 2 Noroeste 7 Sudeste 0 -- -- 92
2019-01-26 09:00:00 4.1 4 Sur 5 Sudeste 0 -- -- 98
2019-01-26 08:00:00 1.8 0 Calma 6 Nordeste 0 -- -- 97
2019-01-26 07:00:00 1.7 0 Calma 4 Oeste 0 -- -- 95
2019-01-26 06:00:00 2.2 0 Calma 5 Nordeste 0 -- -- 94
2019-01-26 05:00:00 4.1 6 Oeste 9 Oeste 0 -- -- 96
2019-01-26 04:00:00 3.5 4 Norte 11 Norte 0 -- -- 95
2019-01-26 03:00:00 3.4 3 Sudeste 5 Sudeste 0 -- -- 94
2019-01-26 02:00:00 4 0 Calma 6 Nordeste 0 -- -- 93
2019-01-26 01:00:00 5.7 2 Nordeste 8 Nordeste 0 -- -- 94
2019-01-26 00:00:00 5.8 0 Calma 5 Noroeste 0 -- -- 89
2019-01-25 23:00:00 8.8 0 Calma 6 Noroeste 0 -- -- 85
2019-01-25 22:00:00 10.2 3 Norte 22 Oeste 0 -- -- 81
2019-01-25 21:00:00 12.2 13 Oeste 19 Oeste 0 -- -- 80
2019-01-25 20:00:00 11.9 8 Oeste 18 Oeste 0 -- -- 75
2019-01-25 19:00:00 12.5 9 Sudoeste 21 Oeste 0 -- -- 65
2019-01-25 18:00:00 12.4 12 Sudoeste 21 Oeste 0 -- -- 55
2019-01-25 17:00:00 12.8 8 Sudoeste 17 Sudoeste 0 -- -- 52
2019-01-25 16:00:00 14.3 3 Noroeste 18 Nordeste 0 -- -- 48
2019-01-25 15:00:00 13.7 9 Norte 27 Nordeste 0 -- -- 50
2019-01-25 14:00:00 14 16 Nordeste 27 Nordeste 0 -- -- 44
2019-01-25 13:00:00 13.6 12 Norte -- -- -- -- -- 38
2019-01-25 12:00:00 12.8 11 Noroeste 21 Noroeste 0 -- -- 46
2019-01-25 11:00:00 8 0 Calma 6 Norte 0 -- -- 77
2019-01-25 10:00:00 5.4 3 Norte 8 Nordeste 0 -- -- 81
2019-01-25 09:00:00 0.3 2 Noroeste 7 Norte 0 -- -- 94
2019-01-25 08:00:00 -2.8 2 Sudeste 3 Sudeste 0 -- -- 94
2019-01-25 07:00:00 -2 0 Calma 5 Norte 0 -- -- 94
2019-01-25 06:00:00 -1 0 Calma 4 Sudeste 0 -- -- 95
2019-01-25 05:00:00 -1.2 0 Calma 8 Norte 0 -- -- 93
2019-01-25 04:00:00 -1.8 0 Calma 4 Norte 0 -- -- 93
2019-01-25 03:00:00 -0.5 0 Calma 8 Nordeste 0 -- -- 92
2019-01-25 02:00:00 -0.6 0 Calma 4 Oeste 0 -- -- 91
2019-01-25 01:00:00 0 0 Calma 4 Sudeste 0 -- -- 91
2019-01-25 00:00:00 1 0 Calma 7 Oeste 0 -- -- 87
2019-01-24 23:00:00 1.2 4 Nordeste 4 Nordeste 0 -- -- 88
2019-01-24 22:00:00 1.6 2 Este 5 Sur 0 -- -- 87
2019-01-24 21:00:00 2.1 2 Sur 6 Sudeste 0 -- -- 82
2019-01-24 20:00:00 4.7 0 Calma 10 Nordeste 0 -- -- 73
2019-01-24 19:00:00 5.1 4 Sudeste 14 Nordeste 0 -- -- 71
2019-01-24 18:00:00 9.3 7 Nordeste 21 Nordeste 0 -- -- 55
2019-01-24 17:00:00 11.5 17 Norte 37 Noroeste 0 -- -- 45
2019-01-24 16:00:00 12.3 24 Norte 40 Norte 0 -- -- 39
2019-01-24 15:00:00 12.2 20 Norte 41 Norte 0 -- -- 44
2019-01-24 14:00:00 11.6 32 Norte 47 Norte 0 -- -- 45
2019-01-24 13:00:00 11.3 33 Norte 49 Norte 0 -- -- 42
2019-01-24 12:00:00 10.7 37 Noroeste 53 Noroeste 0 -- -- 44
2019-01-24 11:00:00 10.1 32 Noroeste 50 Norte 0 -- -- 45
2019-01-24 10:00:00 9.2 32 Noroeste 42 Norte 0 -- -- 46
2019-01-24 09:00:00 8 23 Noroeste 47 Norte 0 -- -- 53
2019-01-24 08:00:00 8.1 32 Norte 55 Norte 0 -- -- 48
2019-01-24 07:00:00 8.3 32 Noroeste 54 Noroeste 0 -- -- 51
2019-01-24 06:00:00 6.3 17 Noroeste 24 Noroeste 0 -- -- 71
2019-01-24 05:00:00 6.9 15 Noroeste 21 Noroeste 0 -- -- 71
2019-01-24 04:00:00 7.3 12 Noroeste 20 Noroeste 0 -- -- 81
2019-01-24 03:00:00 7.6 15 Norte 23 Norte 0 -- -- 86
2019-01-24 02:00:00 7.4 8 Norte 25 Norte 0 -- -- 86
2019-01-24 01:00:00 8.3 8 Nordeste 14 Nordeste 0 -- -- 85
2019-01-24 00:00:00 9.1 8 Nordeste 22 Nordeste 0 -- -- 80
2019-01-23 23:00:00 10.6 8 Nordeste 36 Noroeste 0 -- -- 70
2019-01-23 22:00:00 11.7 20 Noroeste 33 Noroeste 0 -- -- 62
2019-01-23 21:00:00 12.5 15 Noroeste 31 Noroeste 0 -- -- 62
2019-01-23 20:00:00 12.8 26 Noroeste 50 Oeste 0 -- -- 63
2019-01-23 19:00:00 13.3 35 Noroeste 63 Oeste 0 -- -- 63
2019-01-23 18:00:00 13.4 33 Noroeste 65 Noroeste 0 -- -- 63
2019-01-23 17:00:00 13.9 39 Noroeste 60 Noroeste 0 -- -- 61
2019-01-23 16:00:00 14.5 40 Noroeste 68 Noroeste 0 -- -- 63
2019-01-23 15:00:00 14.2 37 Noroeste 54 Oeste 0.2 -- -- 68
2019-01-23 14:00:00 13.3 39 Oeste 53 Oeste 0 -- -- 73
2019-01-23 13:00:00 11.9 24 Oeste 38 Oeste 0.2 -- -- 77
2019-01-23 12:00:00 10.2 10 Noroeste 46 Oeste 1 -- -- 85
2019-01-23 11:00:00 12.1 34 Oeste 52 Oeste 0.2 -- -- 70
2019-01-23 10:00:00 11.7 21 Oeste 42 Oeste 0 -- -- 71
2019-01-23 09:00:00 9.3 3 Oeste 7 Sudoeste 0 -- -- 79
2019-01-23 08:00:00 9.1 4 Sudoeste 22 Oeste 0 -- -- 76
2019-01-23 07:00:00 8.8 11 Oeste 26 Oeste 0 -- -- 74
2019-01-23 06:00:00 9.4 8 Noroeste 29 Oeste 0 -- -- 72
2019-01-23 05:00:00 8.9 21 Noroeste 35 Noroeste 0 -- -- 75
2019-01-23 04:00:00 7.8 10 Oeste 19 Oeste 0 -- -- 81
2019-01-23 03:00:00 8.1 10 Noroeste 23 Oeste 0 -- -- 80
2019-01-23 02:00:00 8.3 9 Oeste 30 Oeste 0 -- -- 81
2019-01-23 01:00:00 8.9 20 Oeste 31 Noroeste 0 -- -- 82
2019-01-23 00:00:00 7.7 0 Calma 9 Noroeste 0 -- -- 81
2019-01-22 23:00:00 8.8 8 Noroeste 10 Noroeste 0 -- -- 75
2019-01-22 22:00:00 9.2 5 Oeste 14 Oeste 0 -- -- 68
2019-01-22 21:00:00 8.2 9 Noroeste 12 Noroeste 0 -- -- 74
2019-01-22 20:00:00 8.3 5 Oeste 12 Noroeste 0 -- -- 74
2019-01-22 19:00:00 8.8 12 Noroeste 21 Oeste 0 -- -- 71
2019-01-22 18:00:00 9.8 16 Oeste 24 Oeste 0 -- -- 67
2019-01-22 17:00:00 10.5 14 Oeste 32 Oeste 0 -- -- 64
2019-01-22 16:00:00 11.2 19 Noroeste 37 Oeste 0 -- -- 61
2019-01-22 15:00:00 11.8 23 Oeste 38 Oeste 0 -- -- 58
2019-01-22 14:00:00 12 24 Oeste 33 Oeste 0 -- -- 60
2019-01-22 13:00:00 11.9 19 Oeste 29 Oeste 0 -- -- 55
2019-01-22 12:00:00 11.2 19 Noroeste 29 Oeste 0 -- -- 64
2019-01-22 11:00:00 8.4 4 Noroeste 11 Oeste 0 -- -- 95
2019-01-22 10:00:00 4.3 2 Norte 3 Noroeste 0 -- -- 98
2019-01-22 09:00:00 1.4 0 Calma 2 Norte 0 -- -- 99
2019-01-22 08:00:00 -0.4 0 Calma 3 Sur 0 -- -- 97
2019-01-22 07:00:00 0.9 0 Calma 3 Norte 0 -- -- 98
2019-01-22 06:00:00 0.5 0 Calma 4 Sudeste 0 -- -- 97
2019-01-22 05:00:00 1.3 0 Calma 3 Norte 0.2 -- -- 96
2019-01-22 04:00:00 3.5 0 Calma 4 Sudeste 0 -- -- 95
2019-01-22 03:00:00 4.9 2 Sudeste 10 Noroeste 0 -- -- 95
2019-01-22 02:00:00 5.8 8 Oeste 26 Noroeste 0 -- -- 97
2019-01-22 01:00:00 3.6 0 Calma 6 Este 0 -- -- 98
2019-01-22 00:00:00 3.5 0 Calma 6 Nordeste 0 -- -- 95
2019-01-21 23:00:00 2.5 4 Este 8 Norte 0 -- -- 95
2019-01-21 22:00:00 4.4 3 Nordeste 8 Nordeste 0 -- -- 94
2019-01-21 21:00:00 4.5 3 Nordeste 8 Norte 0 -- -- 92
2019-01-21 20:00:00 6.3 3 Norte 8 Norte 0 -- -- 90
2019-01-21 19:00:00 7.1 0 Calma 9 Norte 0 -- -- 86
2019-01-21 18:00:00 8.5 9 Norte 40 Norte 0 -- -- 79
2019-01-21 17:00:00 11.1 19 Norte 31 Norte 0 -- -- 69
2019-01-21 16:00:00 11.7 21 Norte 37 Norte 0 -- -- 65
2019-01-21 15:00:00 12.6 27 Norte 40 Nordeste 0 -- -- 61
2019-01-21 14:00:00 13 22 Norte 42 Norte 0 -- -- 64
2019-01-21 13:00:00 12.7 24 Norte 44 Nordeste 0 -- -- 62
2019-01-21 12:00:00 12.7 22 Norte 42 Norte 0 -- -- 71
2019-01-21 11:00:00 11.8 23 Norte 35 Norte 0 -- -- 75
2019-01-21 10:00:00 9.1 3 Sudeste 6 Sur 0.2 -- -- 94
2019-01-21 09:00:00 7.4 3 Norte 15 Norte 0 -- -- 94
2019-01-21 08:00:00 8.4 13 Norte 27 Nordeste 0.2 -- -- 93
2019-01-21 07:00:00 8.6 12 Norte 39 Norte 0 -- -- 93
2019-01-21 06:00:00 8.8 9 Norte 19 Norte 0.2 -- -- 93
2019-01-21 05:00:00 9 17 Norte 28 Norte 0.4 -- -- 94
2019-01-21 04:00:00 9.3 15 Norte 28 Norte 0 -- -- 92
2019-01-21 03:00:00 9.2 17 Norte 35 Norte 0.2 -- -- 92
2019-01-21 02:00:00 10 24 Norte 43 Norte 0 -- -- 89
2019-01-21 01:00:00 9.8 23 Norte 41 Norte 0 -- -- 91
2019-01-21 00:00:00 9.9 25 Norte 44 Norte 0 -- -- 87
2019-01-20 23:00:00 9.8 24 Norte 46 Norte 0 -- -- 91
2019-01-20 22:00:00 9.5 29 Norte 49 Norte 0 -- -- 91
2019-01-20 21:00:00 9.8 32 Norte 52 Norte 0 -- -- 90
2019-01-20 20:00:00 10.5 26 Norte 42 Norte 0 -- -- 90
2019-01-20 19:00:00 10.2 2 Norte 15 Noroeste 0 -- -- 86
2019-01-20 18:00:00 11.8 12 Oeste 24 Noroeste 0 -- -- 81
2019-01-20 17:00:00 13.6 19 Noroeste 26 Noroeste 0 -- -- 76
2019-01-20 16:00:00 14 8 Noroeste 18 Noroeste 0 -- -- 74
2019-01-20 15:00:00 13.3 14 Noroeste 24 Noroeste 0 -- -- 78
2019-01-20 14:00:00 13 13 Noroeste 19 Noroeste 0 -- -- 84
2019-01-20 13:00:00 12.6 14 Noroeste 21 Noroeste 0 -- -- 86
2019-01-20 12:00:00 13.5 7 Noroeste 11 Noroeste 0 -- -- 87
2019-01-20 11:00:00 12.3 5 Norte 7 Norte 0 -- -- 93
2019-01-20 10:00:00 11.3 3 Norte 6 Nordeste 0 -- -- 97
2019-01-20 09:00:00 10.2 5 Nordeste 17 Sudeste 1.2 -- -- 95
2019-01-20 08:00:00 11.6 13 Sudeste 20 Sur 0.4 -- -- 92
2019-01-20 07:00:00 11.4 7 Sudeste 16 Sur 0 -- -- 84
2019-01-20 06:00:00 12.3 8 Sur 21 Sudoeste 0 -- -- 79
2019-01-20 05:00:00 12.1 9 Sur 17 Sudoeste 0 -- -- 77
2019-01-20 04:00:00 9.4 9 Sudoeste 15 Sudoeste 0 -- -- 95
2019-01-20 03:00:00 5.2 0 Calma 4 Norte 0 -- -- 94
2019-01-20 02:00:00 4.3 2 Sudeste 6 Nordeste 0 -- -- 94
2019-01-20 01:00:00 3.4 2 Sudeste 4 Sudeste 0 -- -- 95
2019-01-20 00:00:00 3.2 0 Calma 3 Norte 0 -- -- 95
2019-01-19 23:00:00 2.6 3 Sudeste 4 Sudeste 0 -- -- 93
2019-01-19 22:00:00 2.9 0 Calma 4 Sudeste 0 -- -- 92
2019-01-19 21:00:00 3.6 4 Sudeste 5 Sudeste 0 -- -- 90
2019-01-19 20:00:00 5.6 2 Sudeste 6 Oeste 0 -- -- 83
2019-01-19 19:00:00 9.8 7 Noroeste 14 Oeste 0 -- -- 76
2019-01-19 18:00:00 11.1 10 Noroeste 19 Oeste 0 -- -- 71
2019-01-19 17:00:00 12.9 17 Oeste 28 Oeste 0 -- -- 65
2019-01-19 16:00:00 14.1 19 Oeste 28 Oeste 0 -- -- 61
2019-01-19 15:00:00 14 15 Oeste 27 Oeste 0 -- -- 61
2019-01-19 14:00:00 13.7 20 Oeste 30 Oeste 0 -- -- 66
2019-01-19 13:00:00 13.7 8 Oeste 17 Oeste 0 -- -- 59
2019-01-19 12:00:00 13.3 0 Calma 4 Noroeste 0.2 -- -- 72
2019-01-19 11:00:00 10.1 4 Noroeste 5 Noroeste 0 -- -- 91
2019-01-19 10:00:00 7.6 0 Calma 4 Norte 0 -- -- 99
2019-01-19 09:00:00 5.2 0 Calma 4 Sudeste 0 -- -- 99
2019-01-19 08:00:00 3.7 2 Nordeste 5 Norte 0 -- -- 99
2019-01-19 07:00:00 4 2 Nordeste 5 Norte 0 -- -- 99
2019-01-19 06:00:00 4 0 Calma 4 Norte 0 -- -- 99
2019-01-19 05:00:00 4.6 2 Norte 6 Norte 0 -- -- 98
2019-01-19 04:00:00 3.8 0 Calma 4 Norte 0 -- -- 97
2019-01-19 03:00:00 3.1 2 Sur 3 Sudeste 0 -- -- 97
2019-01-19 02:00:00 4.8 2 Nordeste 6 Noroeste 0 -- -- 97
2019-01-19 01:00:00 4.5 0 Calma 4 Norte 0 -- -- 96
2019-01-19 00:00:00 5.3 2 Norte 5 Norte 0 -- -- 97